createdAt,value
2017-12-11T00:02:25.162Z,0.37
2017-12-11T00:04:51.559Z,0.43
2017-12-11T00:07:17.994Z,0.50
2017-12-11T00:09:44.429Z,0.55
2017-12-11T00:12:10.900Z,0.47
2017-12-11T00:14:37.230Z,0.46
2017-12-11T00:17:03.629Z,0.49
2017-12-11T00:19:30.064Z,0.48
2017-12-11T00:21:56.499Z,0.40
2017-12-11T00:24:22.869Z,0.16
2017-12-11T00:26:49.265Z,0.21
2017-12-11T00:29:15.701Z,0.25
2017-12-11T00:31:42.237Z,0.33
2017-12-11T00:34:08.672Z,0.39
2017-12-11T00:36:35.075Z,0.40
2017-12-11T00:39:01.540Z,0.25
2017-12-11T00:41:27.975Z,0.05
2017-12-11T00:43:55.229Z,-0.18
2017-12-11T00:46:21.665Z,-0.25
2017-12-11T00:48:48.098Z,-0.36
2017-12-11T00:51:14.533Z,-0.62
2017-12-11T00:53:40.968Z,-0.62
2017-12-11T00:56:07.409Z,-0.61
2017-12-11T00:58:33.836Z,-0.55
2017-12-11T01:01:00.272Z,-0.56
2017-12-11T01:03:26.706Z,-0.60
2017-12-11T01:05:53.142Z,-0.55
2017-12-11T01:08:19.519Z,-0.68
2017-12-11T01:10:45.907Z,-0.74
2017-12-11T01:13:12.342Z,-0.70
2017-12-11T01:15:38.776Z,-0.65
2017-12-11T01:18:05.211Z,-0.55
2017-12-11T01:20:31.644Z,-0.49
2017-12-11T01:22:58.182Z,-0.42
2017-12-11T01:25:24.619Z,-0.34
2017-12-11T01:27:51.053Z,-0.34
2017-12-11T01:30:17.416Z,-0.32
2017-12-11T01:32:43.788Z,-0.34
2017-12-11T01:35:10.256Z,-0.38
2017-12-11T01:37:36.690Z,-0.44
2017-12-11T01:40:03.125Z,-0.48
2017-12-11T01:42:29.558Z,-0.53
2017-12-11T01:44:55.991Z,-0.49
2017-12-11T01:47:22.425Z,-0.45
2017-12-11T01:49:48.793Z,-0.52
2017-12-11T01:52:16.011Z,-0.65
2017-12-11T01:54:42.445Z,-0.66
2017-12-11T01:57:08.814Z,-0.72
2017-12-11T01:59:35.213Z,-0.76
2017-12-11T02:02:01.648Z,-0.70
2017-12-11T02:04:28.082Z,-0.68
2017-12-11T02:06:54.516Z,-0.73
2017-12-11T02:09:20.953Z,-0.76
2017-12-11T02:11:47.385Z,-0.82
2017-12-11T02:14:13.820Z,-0.91
2017-12-11T02:16:40.256Z,-1.10
2017-12-11T02:19:06.690Z,-1.08
2017-12-11T02:21:33.124Z,-1.05
2017-12-11T02:23:59.456Z,-0.95
2017-12-11T02:26:25.890Z,-0.95
2017-12-11T02:28:52.328Z,-0.94
2017-12-11T02:31:19.271Z,-1.00
2017-12-11T02:33:45.707Z,-0.96
2017-12-11T02:36:12.141Z,-0.95
2017-12-11T02:38:38.577Z,-0.92
2017-12-11T02:41:05.010Z,-0.89
2017-12-11T02:43:31.444Z,-0.85
2017-12-11T02:45:57.981Z,-0.90
2017-12-11T02:48:24.416Z,-0.90
2017-12-11T02:50:50.783Z,-0.91
2017-12-11T02:53:17.182Z,-0.92
2017-12-11T02:55:43.617Z,-0.91
2017-12-11T02:58:10.051Z,-0.93
2017-12-11T03:00:36.489Z,-1.01
2017-12-11T03:03:03.640Z,-1.07
2017-12-11T03:05:30.080Z,-1.09
2017-12-11T03:07:56.506Z,-1.11
2017-12-11T03:10:23.736Z,-1.15
2017-12-11T03:12:50.198Z,-1.07
2017-12-11T03:15:16.626Z,-0.94
2017-12-11T03:17:43.783Z,-0.86
2017-12-11T03:20:10.215Z,-0.87
2017-12-11T03:22:36.650Z,-1.00
2017-12-11T03:25:03.085Z,-1.08
2017-12-11T03:27:29.519Z,-1.02
2017-12-11T03:29:55.955Z,-0.96
2017-12-11T03:32:22.389Z,-0.82
2017-12-11T03:34:48.805Z,-0.74
2017-12-11T03:37:15.257Z,-0.74
2017-12-11T03:39:41.691Z,-0.84
2017-12-11T03:42:08.777Z,-0.86
2017-12-11T03:44:35.176Z,-0.89
2017-12-11T03:47:01.611Z,-0.89
2017-12-11T03:49:28.762Z,-0.79
2017-12-11T03:51:55.200Z,-0.73
2017-12-11T03:54:21.630Z,-0.69
2017-12-11T03:56:48.066Z,-0.84
2017-12-11T03:59:14.503Z,-0.86
2017-12-11T04:01:40.934Z,-0.84
2017-12-11T04:04:07.356Z,-0.78
2017-12-11T04:06:33.772Z,-0.81
2017-12-11T04:09:00.215Z,-0.83
2017-12-11T04:11:26.672Z,-0.76
2017-12-11T04:13:53.107Z,-0.67
2017-12-11T04:16:19.438Z,-0.64
2017-12-11T04:18:45.873Z,-0.57
2017-12-11T04:21:12.308Z,-0.48
2017-12-11T04:23:38.750Z,-0.46
2017-12-11T04:26:05.176Z,-0.37
2017-12-11T04:28:31.612Z,-0.34
2017-12-11T04:30:58.046Z,-0.28
2017-12-11T04:33:24.480Z,-0.23
2017-12-11T04:35:50.915Z,-0.17
2017-12-11T04:38:17.350Z,-0.10
2017-12-11T04:40:43.784Z,-0.18
2017-12-11T04:43:10.219Z,-0.17
2017-12-11T04:45:36.654Z,-0.16
2017-12-11T04:48:03.088Z,-0.18
2017-12-11T04:50:29.420Z,-0.14
2017-12-11T04:52:55.854Z,-0.03
2017-12-11T04:55:22.288Z,-0.05
2017-12-11T04:57:48.725Z,-0.08
2017-12-11T05:00:15.158Z,-0.07
2017-12-11T05:02:41.592Z,-0.06
2017-12-11T05:05:08.027Z,-0.06
2017-12-11T05:07:34.462Z,0.02
2017-12-11T05:10:00.896Z,-0.09
2017-12-11T05:12:27.264Z,-0.18
2017-12-11T05:14:53.644Z,-0.17
2017-12-11T05:17:20.087Z,-0.12
2017-12-11T05:19:46.534Z,-0.06
2017-12-11T05:22:12.967Z,-0.02
2017-12-11T05:24:39.401Z,0.01
2017-12-11T05:27:05.938Z,0.03
2017-12-11T05:29:32.378Z,0.13
2017-12-11T05:31:58.742Z,0.22
2017-12-11T05:34:25.103Z,0.29
2017-12-11T05:36:51.473Z,0.18
2017-12-11T05:39:18.726Z,0.25
2017-12-11T05:41:45.159Z,0.26
2017-12-11T05:44:11.701Z,0.35
2017-12-11T05:46:38.739Z,0.40
2017-12-11T05:49:05.181Z,0.43
2017-12-11T05:51:31.617Z,0.43
2017-12-11T05:53:58.051Z,0.46
2017-12-11T05:56:24.484Z,0.54
2017-12-11T05:58:50.919Z,0.66
2017-12-11T06:01:17.354Z,0.82
2017-12-11T06:03:43.856Z,0.99
2017-12-11T06:06:10.299Z,1.15
2017-12-11T06:08:36.762Z,1.30
2017-12-11T06:11:03.195Z,1.48
2017-12-11T06:13:29.629Z,1.74
2017-12-11T06:15:56.064Z,1.87
2017-12-11T06:18:22.496Z,1.99
2017-12-11T06:20:48.932Z,2.02
2017-12-11T06:23:15.366Z,2.10
2017-12-11T06:25:41.903Z,2.21
2017-12-11T06:28:08.338Z,2.25
2017-12-11T06:30:34.773Z,2.31
2017-12-11T06:33:01.413Z,2.40
2017-12-11T06:35:27.848Z,2.51
2017-12-11T06:37:54.280Z,2.57
2017-12-11T06:40:20.716Z,2.65
2017-12-11T06:42:47.152Z,2.71
2017-12-11T06:45:13.584Z,2.70
2017-12-11T06:47:40.021Z,2.67
2017-12-11T06:50:06.453Z,2.60
2017-12-11T06:52:32.889Z,2.57
2017-12-11T06:54:59.425Z,2.49
2017-12-11T06:57:25.962Z,2.51
2017-12-11T06:59:52.334Z,2.55
2017-12-11T07:02:18.913Z,2.51
2017-12-11T07:04:45.368Z,2.40
2017-12-11T07:07:12.519Z,2.38
2017-12-11T07:09:38.954Z,2.32
2017-12-11T07:12:05.480Z,2.26
2017-12-11T07:14:32.781Z,2.24
2017-12-11T07:16:59.179Z,2.26
2017-12-11T07:19:25.616Z,2.29
2017-12-11T07:21:52.559Z,2.46
2017-12-11T07:24:19.066Z,2.57
2017-12-11T07:26:45.429Z,2.66
2017-12-11T07:29:12.349Z,2.68
2017-12-11T07:31:38.752Z,2.77
2017-12-11T07:34:05.961Z,2.84
2017-12-11T07:36:32.908Z,2.93
2017-12-11T07:38:59.754Z,3.00
2017-12-11T07:41:26.189Z,3.16
2017-12-11T07:43:53.032Z,3.23
2017-12-11T07:46:19.466Z,3.39
2017-12-11T07:48:45.900Z,3.62
2017-12-11T07:51:12.642Z,3.86
2017-12-11T07:53:39.178Z,4.07
2017-12-11T07:56:05.614Z,4.28
2017-12-11T07:58:32.355Z,4.46
2017-12-11T08:00:58.726Z,4.64
2017-12-11T08:03:25.224Z,4.82
2017-12-11T08:05:51.953Z,5.03
2017-12-11T08:08:18.401Z,5.21
2017-12-11T08:10:45.141Z,5.44
2017-12-11T08:13:11.782Z,5.65
2017-12-11T08:15:38.216Z,5.80
2017-12-11T08:18:04.651Z,5.98
2017-12-11T08:20:31.395Z,6.19
2017-12-11T08:22:57.930Z,6.38
2017-12-11T08:25:24.365Z,6.56
2017-12-11T08:27:50.729Z,6.72
2017-12-11T08:30:17.438Z,6.86
2017-12-11T08:32:43.965Z,7.01
2017-12-11T08:35:10.410Z,7.14
2017-12-11T08:37:37.150Z,7.17
2017-12-11T08:40:03.486Z,7.05
2017-12-11T08:42:30.020Z,6.93
2017-12-11T08:44:56.427Z,6.81
2017-12-11T08:47:22.869Z,6.57
2017-12-11T08:49:49.427Z,6.49
2017-12-11T08:52:15.963Z,6.45
2017-12-11T08:54:42.471Z,6.50
2017-12-11T08:57:09.140Z,6.55
2017-12-11T08:59:36.187Z,6.61
2017-12-11T09:02:02.726Z,6.76
2017-12-11T09:04:29.569Z,6.92
2017-12-11T09:06:56.003Z,7.05
2017-12-11T09:09:22.438Z,7.19
2017-12-11T09:11:49.180Z,7.24
2017-12-11T09:14:15.615Z,7.28
2017-12-11T09:16:42.152Z,7.24
2017-12-11T09:19:08.517Z,7.27
2017-12-11T09:21:34.912Z,7.19
2017-12-11T09:24:01.353Z,6.98
2017-12-11T09:26:27.889Z,6.75
2017-12-11T09:28:54.324Z,6.53
2017-12-11T09:31:21.153Z,6.43
2017-12-11T09:33:47.604Z,6.46
2017-12-11T09:36:14.038Z,6.44
2017-12-11T09:38:40.472Z,6.40
2017-12-11T09:41:06.843Z,6.49
2017-12-11T09:43:33.313Z,6.62
2017-12-11T09:45:59.756Z,6.72
2017-12-11T09:48:26.108Z,6.90
2017-12-11T09:50:52.561Z,7.02
2017-12-11T09:53:19.079Z,7.09
2017-12-11T09:55:45.721Z,7.20
2017-12-11T09:58:12.051Z,7.24
2017-12-11T10:00:38.485Z,7.37
2017-12-11T10:03:05.022Z,7.48
2017-12-11T10:05:31.643Z,7.55
2017-12-11T10:07:58.029Z,7.70
2017-12-11T10:10:24.505Z,7.88
2017-12-11T10:12:51.375Z,7.90
2017-12-11T10:15:17.809Z,7.89
2017-12-11T10:17:44.249Z,7.88
2017-12-11T10:20:10.682Z,7.82
2017-12-11T10:22:37.219Z,7.64
2017-12-11T10:25:03.652Z,7.46
2017-12-11T10:27:30.086Z,7.25
2017-12-11T10:29:56.519Z,7.08
2017-12-11T10:32:23.056Z,6.95
2017-12-11T10:34:49.388Z,6.65
2017-12-11T10:37:16.130Z,6.53
2017-12-11T10:39:42.567Z,6.36
2017-12-11T10:42:09.103Z,6.38
2017-12-11T10:44:35.434Z,6.49
2017-12-11T10:47:01.872Z,6.46
2017-12-11T10:49:28.309Z,6.57
2017-12-11T10:51:54.773Z,6.74
2017-12-11T10:54:21.172Z,6.92
2017-12-11T10:56:48.569Z,7.15
2017-12-11T10:59:14.925Z,7.29
2017-12-11T11:01:41.388Z,7.46
2017-12-11T11:04:07.832Z,7.64
2017-12-11T11:06:34.477Z,7.84
2017-12-11T11:09:00.905Z,7.99
2017-12-11T11:11:27.339Z,8.17
2017-12-11T11:13:53.777Z,8.27
2017-12-11T11:16:20.210Z,8.35
2017-12-11T11:18:46.649Z,8.40
2017-12-11T11:21:13.285Z,8.58
2017-12-11T11:23:39.820Z,8.73
2017-12-11T11:26:06.254Z,8.82
2017-12-11T11:28:32.690Z,8.94
2017-12-11T11:30:59.431Z,9.09
2017-12-11T11:33:25.968Z,9.11
2017-12-11T11:35:52.403Z,9.14
2017-12-11T11:38:18.837Z,9.19
2017-12-11T11:40:45.272Z,9.35
2017-12-11T11:43:11.760Z,9.40
2017-12-11T11:45:38.654Z,9.47
2017-12-11T11:48:05.089Z,9.58
2017-12-11T11:50:31.522Z,9.59
2017-12-11T11:52:57.960Z,9.60
2017-12-11T11:55:24.390Z,9.45
2017-12-11T11:57:50.772Z,9.27
2017-12-11T12:00:17.157Z,9.13
2017-12-11T12:02:43.694Z,9.06
2017-12-11T12:05:10.129Z,8.91
2017-12-11T12:07:36.668Z,8.99
2017-12-11T12:10:03.100Z,9.12
2017-12-11T12:12:29.844Z,9.21
2017-12-11T12:14:56.653Z,9.33
2017-12-11T12:17:23.058Z,9.50
2017-12-11T12:19:49.460Z,9.71
2017-12-11T12:22:16.298Z,9.91
2017-12-11T12:24:42.665Z,10.12
2017-12-11T12:27:09.017Z,10.27
2017-12-11T12:29:35.397Z,10.44
2017-12-11T12:32:02.138Z,10.66
2017-12-11T12:34:28.576Z,10.77
2017-12-11T12:36:55.416Z,10.81
2017-12-11T12:39:21.851Z,10.74
2017-12-11T12:41:48.370Z,10.63
2017-12-11T12:44:15.028Z,10.54
2017-12-11T12:46:41.362Z,10.56
2017-12-11T12:49:07.794Z,10.54
2017-12-11T12:51:34.229Z,10.52
2017-12-11T12:54:00.906Z,10.49
2017-12-11T12:56:27.302Z,10.51
2017-12-11T12:58:54.249Z,10.50
2017-12-11T13:01:21.305Z,10.47
2017-12-11T13:03:47.877Z,10.34
2017-12-11T13:06:14.373Z,10.29
2017-12-11T13:08:40.912Z,10.16
2017-12-11T13:11:07.318Z,10.02
2017-12-11T13:13:33.880Z,9.92
2017-12-11T13:16:00.513Z,9.82
2017-12-11T13:18:26.935Z,9.72
2017-12-11T13:20:53.394Z,9.60
2017-12-11T13:23:20.130Z,9.50
2017-12-11T13:25:46.705Z,9.40
2017-12-11T13:28:13.171Z,9.24
2017-12-11T13:30:40.048Z,9.18
2017-12-11T13:33:06.586Z,9.07
2017-12-11T13:35:33.021Z,9.10
2017-12-11T13:37:59.341Z,9.09
2017-12-11T13:40:26.196Z,9.06
2017-12-11T13:42:52.665Z,9.07
2017-12-11T13:45:19.168Z,9.12
2017-12-11T13:47:45.806Z,9.09
2017-12-11T13:50:12.241Z,9.01
2017-12-11T13:52:38.715Z,8.87
2017-12-11T13:55:05.111Z,8.71
2017-12-11T13:57:31.547Z,8.57
2017-12-11T13:59:58.287Z,8.42
2017-12-11T14:02:24.828Z,8.33
2017-12-11T14:04:51.363Z,8.24
2017-12-11T14:07:18.308Z,8.11
2017-12-11T14:09:44.677Z,8.03
2017-12-11T14:12:11.995Z,8.01
2017-12-11T14:14:38.431Z,7.95
2017-12-11T14:17:05.380Z,7.88
2017-12-11T14:19:31.814Z,7.75
2017-12-11T14:21:58.350Z,7.65
2017-12-11T14:24:25.296Z,7.57
2017-12-11T14:26:51.731Z,7.45
2017-12-11T14:29:18.164Z,7.34
2017-12-11T14:31:45.008Z,7.36
2017-12-11T14:34:11.382Z,7.30
2017-12-11T14:36:37.991Z,7.20
2017-12-11T14:39:05.001Z,7.10
2017-12-11T14:41:31.538Z,7.00
2017-12-11T14:43:58.105Z,6.89
2017-12-11T14:46:25.563Z,6.68
2017-12-11T14:48:52.049Z,6.58
2017-12-11T14:51:18.706Z,6.47
2017-12-11T14:53:45.253Z,6.38
2017-12-11T14:56:12.026Z,6.28
2017-12-11T14:58:38.657Z,6.23
2017-12-11T15:01:05.475Z,6.15
2017-12-11T15:03:32.037Z,6.16
2017-12-11T15:05:58.574Z,6.16
2017-12-11T15:08:25.008Z,6.26
2017-12-11T15:10:51.545Z,6.19
2017-12-11T15:13:17.982Z,6.13
2017-12-11T15:15:44.415Z,6.11
2017-12-11T15:18:10.849Z,6.15
2017-12-11T15:20:37.283Z,6.26
2017-12-11T15:23:03.820Z,6.39
2017-12-11T15:25:30.246Z,6.51
2017-12-11T15:27:56.626Z,6.50
2017-12-11T15:30:23.028Z,6.55
2017-12-11T15:32:49.456Z,6.59
2017-12-11T15:35:15.895Z,6.62
2017-12-11T15:37:42.325Z,6.66
2017-12-11T15:40:08.759Z,6.73
2017-12-11T15:42:35.194Z,6.82
2017-12-11T15:45:01.628Z,6.80
2017-12-11T15:47:28.475Z,6.71
2017-12-11T15:49:54.907Z,6.49
2017-12-11T15:52:21.340Z,6.29
2017-12-11T15:54:47.777Z,6.10
2017-12-11T15:57:14.827Z,5.99
2017-12-11T15:59:41.260Z,5.92
2017-12-11T16:02:07.694Z,5.80
2017-12-11T16:04:34.128Z,5.75
2017-12-11T16:07:00.564Z,5.73
2017-12-11T16:09:27.000Z,5.63
2017-12-11T16:11:53.722Z,5.54
2017-12-11T16:14:20.174Z,5.44
2017-12-11T16:16:46.545Z,5.36
2017-12-11T16:19:12.941Z,5.26
2017-12-11T16:21:39.664Z,5.31
2017-12-11T16:24:06.120Z,5.32
2017-12-11T16:26:32.552Z,5.33
2017-12-11T16:28:58.965Z,5.24
2017-12-11T16:31:25.318Z,5.22
2017-12-11T16:33:51.753Z,5.18
2017-12-11T16:36:18.187Z,5.13
2017-12-11T16:38:44.622Z,5.14
2017-12-11T16:41:11.162Z,5.28
2017-12-11T16:43:37.491Z,5.21
2017-12-11T16:46:03.958Z,5.14
2017-12-11T16:48:30.366Z,5.11
2017-12-11T16:50:56.794Z,5.08
2017-12-11T16:53:23.229Z,5.07
2017-12-11T16:55:49.664Z,5.01
2017-12-11T16:58:16.098Z,4.94
2017-12-11T17:00:42.532Z,4.92
2017-12-11T17:03:09.684Z,4.93
2017-12-11T17:05:36.118Z,4.85
2017-12-11T17:08:02.554Z,4.81
2017-12-11T17:10:28.988Z,4.75
2017-12-11T17:12:55.421Z,4.74
2017-12-11T17:15:21.856Z,4.83
2017-12-11T17:17:48.291Z,4.87
2017-12-11T17:20:15.442Z,4.94
2017-12-11T17:22:41.877Z,5.02
2017-12-11T17:25:08.608Z,4.93
2017-12-11T17:27:35.053Z,4.86
2017-12-11T17:30:01.488Z,4.79
2017-12-11T17:32:28.636Z,4.80
2017-12-11T17:34:55.070Z,4.82
2017-12-11T17:37:21.505Z,4.83
2017-12-11T17:39:48.041Z,4.79
2017-12-11T17:42:14.480Z,4.75
2017-12-11T17:44:41.014Z,4.76
2017-12-11T17:47:07.376Z,4.69
2017-12-11T17:49:33.727Z,4.56
2017-12-11T17:52:00.114Z,4.45
2017-12-11T17:54:26.599Z,4.37
2017-12-11T17:56:52.981Z,4.34
2017-12-11T17:59:19.415Z,4.30
2017-12-11T18:01:46.240Z,4.30
2017-12-11T18:04:12.695Z,4.22
2017-12-11T18:06:39.130Z,4.14
2017-12-11T18:09:05.462Z,4.07
2017-12-11T18:11:32.207Z,4.02
2017-12-11T18:13:58.598Z,3.98
2017-12-11T18:16:25.481Z,3.88
2017-12-11T18:18:52.735Z,3.89
2017-12-11T18:21:19.170Z,3.85
2017-12-11T18:23:45.606Z,3.80
2017-12-11T18:26:12.033Z,3.73
2017-12-11T18:28:38.449Z,3.70
2017-12-11T18:31:04.891Z,3.67
2017-12-11T18:33:31.240Z,3.62
2017-12-11T18:35:57.605Z,3.56
2017-12-11T18:38:24.446Z,3.51
2017-12-11T18:40:50.851Z,3.50
2017-12-11T18:43:17.287Z,3.54
2017-12-11T18:45:43.658Z,3.53
2017-12-11T18:48:10.077Z,3.49
2017-12-11T18:50:36.384Z,3.43
2017-12-11T18:53:02.822Z,3.43
2017-12-11T18:55:29.254Z,3.39
2017-12-11T18:57:55.617Z,3.37
2017-12-11T19:00:22.170Z,3.35
2017-12-11T19:02:48.605Z,3.35
2017-12-11T19:05:15.039Z,3.35
2017-12-11T19:07:41.372Z,3.32
2017-12-11T19:10:07.828Z,3.22
2017-12-11T19:12:34.286Z,3.17
2017-12-11T19:15:00.623Z,3.31
2017-12-11T19:17:27.011Z,3.45
2017-12-11T19:19:54.159Z,3.38
2017-12-11T19:22:20.574Z,3.38
2017-12-11T19:24:47.016Z,3.13
2017-12-11T19:27:13.463Z,3.28
2017-12-11T19:29:39.898Z,3.24
2017-12-11T19:32:06.331Z,3.20
2017-12-11T19:34:32.791Z,3.16
2017-12-11T19:37:00.006Z,3.08
2017-12-11T19:39:26.454Z,3.06
2017-12-11T19:41:52.889Z,3.00
2017-12-11T19:44:19.323Z,2.99
2017-12-11T19:46:45.656Z,2.94
2017-12-11T19:49:12.090Z,2.91
2017-12-11T19:51:38.546Z,2.88
2017-12-11T19:54:05.677Z,2.86
2017-12-11T19:56:32.130Z,2.85
2017-12-11T19:58:58.544Z,2.82
2017-12-11T20:01:24.979Z,2.76
2017-12-11T20:03:51.393Z,2.73
2017-12-11T20:06:17.849Z,2.71
2017-12-11T20:08:44.257Z,2.65
2017-12-11T20:11:11.437Z,2.61
2017-12-11T20:13:37.800Z,2.60
2017-12-11T20:16:04.133Z,2.65
2017-12-11T20:18:30.464Z,2.66
2017-12-11T20:20:56.808Z,2.68
2017-12-11T20:23:23.201Z,2.69
2017-12-11T20:25:49.619Z,2.61
2017-12-11T20:28:16.784Z,2.56
2017-12-11T20:30:43.218Z,2.55
2017-12-11T20:33:09.653Z,2.52
2017-12-11T20:35:36.087Z,2.47
2017-12-11T20:38:02.532Z,2.46
2017-12-11T20:40:28.956Z,2.45
2017-12-11T20:42:55.391Z,2.44
2017-12-11T20:45:22.543Z,2.43
2017-12-11T20:47:48.977Z,2.41
2017-12-11T20:50:15.416Z,2.37
2017-12-11T20:52:41.868Z,2.38
2017-12-11T20:55:08.382Z,2.38
2017-12-11T20:57:34.820Z,2.38
2017-12-11T21:00:01.150Z,2.37
2017-12-11T21:02:28.425Z,2.33
2017-12-11T21:04:54.838Z,2.31
2017-12-11T21:07:21.277Z,2.31
2017-12-11T21:09:47.707Z,2.28
2017-12-11T21:12:14.141Z,2.31
2017-12-11T21:14:40.576Z,2.30
2017-12-11T21:17:06.908Z,2.25
2017-12-11T21:19:34.192Z,2.27
2017-12-11T21:22:00.561Z,2.22
2017-12-11T21:24:26.928Z,2.22
2017-12-11T21:26:53.363Z,2.28
2017-12-11T21:29:19.733Z,2.26
2017-12-11T21:31:46.129Z,2.30
2017-12-11T21:34:12.564Z,2.31
2017-12-11T21:36:39.727Z,2.36
2017-12-11T21:39:06.151Z,2.31
2017-12-11T21:41:32.584Z,2.27
2017-12-11T21:43:59.121Z,2.24
2017-12-11T21:46:25.556Z,2.17
2017-12-11T21:48:51.916Z,2.12
2017-12-11T21:51:18.323Z,2.14
2017-12-11T21:53:45.474Z,2.14
2017-12-11T21:56:11.813Z,2.02
2017-12-11T21:58:38.245Z,1.78
2017-12-11T22:01:04.677Z,1.99
2017-12-11T22:03:31.110Z,2.00
2017-12-11T22:05:57.544Z,2.00
2017-12-11T22:08:23.978Z,2.04
2017-12-11T22:10:51.236Z,2.04
2017-12-11T22:13:17.670Z,2.11
2017-12-11T22:15:44.000Z,2.12
2017-12-11T22:18:10.409Z,2.08
2017-12-11T22:20:36.767Z,2.08
2017-12-11T22:23:03.204Z,2.04
2017-12-11T22:25:29.533Z,2.04
2017-12-11T22:27:56.751Z,1.99
2017-12-11T22:30:23.193Z,1.95
2017-12-11T22:32:49.589Z,1.94
2017-12-11T22:35:15.989Z,1.89
2017-12-11T22:37:42.463Z,1.88
2017-12-11T22:40:08.935Z,1.89
2017-12-11T22:42:35.379Z,1.91
2017-12-11T22:45:02.424Z,1.89
2017-12-11T22:47:28.877Z,1.86
2017-12-11T22:49:55.314Z,1.81
2017-12-11T22:52:21.678Z,1.81
2017-12-11T22:54:48.079Z,1.77
2017-12-11T22:57:14.407Z,1.75
2017-12-11T22:59:40.846Z,1.74
2017-12-11T23:02:07.999Z,1.70
2017-12-11T23:04:34.431Z,1.65
2017-12-11T23:07:00.800Z,1.65
2017-12-11T23:09:27.200Z,1.64
2017-12-11T23:11:53.530Z,1.68
2017-12-11T23:14:19.966Z,1.67
2017-12-11T23:16:46.401Z,1.56
2017-12-11T23:19:13.534Z,1.54
2017-12-11T23:21:39.985Z,1.57
2017-12-11T23:24:06.420Z,1.58
2017-12-11T23:26:32.855Z,1.58
2017-12-11T23:28:59.186Z,1.50
2017-12-11T23:31:25.623Z,1.51
2017-12-11T23:33:52.056Z,1.53
2017-12-11T23:36:19.209Z,1.61
2017-12-11T23:38:45.643Z,1.62
2017-12-11T23:41:12.077Z,1.60
2017-12-11T23:43:38.408Z,1.66
2017-12-11T23:46:04.843Z,1.67
2017-12-11T23:48:31.277Z,1.61
2017-12-11T23:50:57.713Z,1.61
2017-12-11T23:53:24.897Z,1.60
2017-12-11T23:55:51.298Z,1.51
2017-12-11T23:58:17.629Z,1.51
